sensor_id;sensor_type;location;lat;lon;timestamp;pressure;altitude;pressure_sealevel;temperature;humidity
54270;BME280;40181;51.560;13.000;2023-07-24T00:01:09;99810.38;;;21.51;61.79
54270;BME280;40181;51.560;13.000;2023-07-24T00:03:42;99815.31;;;21.60;61.97
54270;BME280;40181;51.560;13.000;2023-07-24T00:06:11;99807.97;;;21.65;61.89
54270;BME280;40181;51.560;13.000;2023-07-24T00:08:41;99807.53;;;21.76;62.14
54270;BME280;40181;51.560;13.000;2023-07-24T00:11:10;99793.22;;;21.77;61.73
54270;BME280;40181;51.560;13.000;2023-07-24T00:13:39;99798.56;;;21.77;61.82
54270;BME280;40181;51.560;13.000;2023-07-24T00:16:09;99792.75;;;21.88;62.25
54270;BME280;40181;51.560;13.000;2023-07-24T00:18:41;99791.28;;;21.39;62.51
54270;BME280;40181;51.560;13.000;2023-07-24T00:21:11;99797.50;;;21.61;62.69
54270;BME280;40181;51.560;13.000;2023-07-24T00:23:40;99797.91;;;21.51;63.18
54270;BME280;40181;51.560;13.000;2023-07-24T00:26:09;99790.81;;;21.71;62.29
54270;BME280;40181;51.560;13.000;2023-07-24T00:28:40;99798.50;;;21.58;62.02
54270;BME280;40181;51.560;13.000;2023-07-24T00:31:09;99789.09;;;21.70;62.15
54270;BME280;40181;51.560;13.000;2023-07-24T00:33:41;99789.69;;;21.56;62.52
54270;BME280;40181;51.560;13.000;2023-07-24T00:36:10;99791.63;;;21.52;61.92
54270;BME280;40181;51.560;13.000;2023-07-24T00:38:39;99791.41;;;21.57;61.87
54270;BME280;40181;51.560;13.000;2023-07-24T00:41:09;99785.13;;;21.58;62.62
54270;BME280;40181;51.560;13.000;2023-07-24T00:43:38;99786.66;;;21.64;61.69
54270;BME280;40181;51.560;13.000;2023-07-24T00:46:09;99781.19;;;21.67;62.26
54270;BME280;40181;51.560;13.000;2023-07-24T00:48:42;99780.13;;;21.50;62.34
54270;BME280;40181;51.560;13.000;2023-07-24T00:51:11;99783.88;;;21.46;63.16
54270;BME280;40181;51.560;13.000;2023-07-24T00:53:40;99787.75;;;21.60;62.89
54270;BME280;40181;51.560;13.000;2023-07-24T00:56:13;99787.97;;;21.34;62.63
54270;BME280;40181;51.560;13.000;2023-07-24T00:58:42;99782.81;;;21.71;61.96
54270;BME280;40181;51.560;13.000;2023-07-24T01:01:14;99774.59;;;21.55;62.12
54270;BME280;40181;51.560;13.000;2023-07-24T01:03:45;99774.53;;;21.36;62.90
54270;BME280;40181;51.560;13.000;2023-07-24T01:06:15;99774.72;;;21.31;63.32
54270;BME280;40181;51.560;13.000;2023-07-24T01:08:44;99770.31;;;21.51;63.05
54270;BME280;40181;51.560;13.000;2023-07-24T01:11:16;99772.56;;;21.60;62.37
54270;BME280;40181;51.560;13.000;2023-07-24T01:13:52;99765.56;;;21.58;62.94
54270;BME280;40181;51.560;13.000;2023-07-24T01:16:33;99764.75;;;21.55;63.03
54270;BME280;40181;51.560;13.000;2023-07-24T01:19:12;99760.84;;;21.44;63.19
54270;BME280;40181;51.560;13.000;2023-07-24T01:22:01;99752.63;;;21.48;63.15
54270;BME280;40181;51.560;13.000;2023-07-24T01:24:46;99750.44;;;21.37;63.02
54270;BME280;40181;51.560;13.000;2023-07-24T01:27:23;99750.00;;;21.47;63.23
54270;BME280;40181;51.560;13.000;2023-07-24T01:29:53;99747.28;;;21.48;63.39
54270;BME280;40181;51.560;13.000;2023-07-24T01:32:22;99758.41;;;21.58;63.30
54270;BME280;40181;51.560;13.000;2023-07-24T01:34:52;99748.28;;;21.46;63.78
54270;BME280;40181;51.560;13.000;2023-07-24T01:37:22;99737.75;;;21.22;63.99
54270;BME280;40181;51.560;13.000;2023-07-24T01:39:53;99740.44;;;21.01;64.80
54270;BME280;40181;51.560;13.000;2023-07-24T01:42:27;99735.22;;;20.98;65.24
54270;BME280;40181;51.560;13.000;2023-07-24T01:44:57;99735.22;;;21.19;64.92
54270;BME280;40181;51.560;13.000;2023-07-24T01:47:26;99741.34;;;21.21;64.22
54270;BME280;40181;51.560;13.000;2023-07-24T01:49:56;99734.28;;;21.20;65.02
54270;BME280;40181;51.560;13.000;2023-07-24T01:52:25;99733.41;;;21.19;64.33
54270;BME280;40181;51.560;13.000;2023-07-24T01:54:55;99731.34;;;21.26;65.10
54270;BME280;40181;51.560;13.000;2023-07-24T01:57:27;99731.13;;;20.89;65.55
54270;BME280;40181;51.560;13.000;2023-07-24T01:59:56;99726.00;;;21.26;64.77
54270;BME280;40181;51.560;13.000;2023-07-24T02:02:25;99736.22;;;21.16;65.17
54270;BME280;40181;51.560;13.000;2023-07-24T02:04:54;99732.28;;;21.04;65.32
54270;BME280;40181;51.560;13.000;2023-07-24T02:07:24;99730.25;;;21.30;65.13
54270;BME280;40181;51.560;13.000;2023-07-24T02:09:53;99732.88;;;21.11;65.21
54270;BME280;40181;51.560;13.000;2023-07-24T02:12:22;99731.06;;;21.32;64.73
54270;BME280;40181;51.560;13.000;2023-07-24T02:14:54;99729.16;;;21.15;65.07
54270;BME280;40181;51.560;13.000;2023-07-24T02:17:25;99724.44;;;21.20;64.38
54270;BME280;40181;51.560;13.000;2023-07-24T02:19:56;99726.41;;;21.17;65.05
54270;BME280;40181;51.560;13.000;2023-07-24T02:22:25;99730.16;;;20.92;65.77
54270;BME280;40181;51.560;13.000;2023-07-24T02:24:54;99731.72;;;20.96;65.57
54270;BME280;40181;51.560;13.000;2023-07-24T02:27:28;99723.72;;;20.96;65.36
54270;BME280;40181;51.560;13.000;2023-07-24T02:30:03;99717.31;;;21.21;65.15
54270;BME280;40181;51.560;13.000;2023-07-24T02:32:33;99723.63;;;20.99;65.14
54270;BME280;40181;51.560;13.000;2023-07-24T02:35:02;99719.00;;;21.03;65.55
54270;BME280;40181;51.560;13.000;2023-07-24T02:37:32;99736.84;;;20.80;65.44
54270;BME280;40181;51.560;13.000;2023-07-24T02:40:02;99728.47;;;20.89;65.10
54270;BME280;40181;51.560;13.000;2023-07-24T02:42:31;99732.63;;;20.74;65.61
54270;BME280;40181;51.560;13.000;2023-07-24T02:45:04;99725.84;;;20.87;65.77
54270;BME280;40181;51.560;13.000;2023-07-24T02:47:36;99725.41;;;20.98;65.38
54270;BME280;40181;51.560;13.000;2023-07-24T02:50:06;99738.56;;;21.03;65.20
54270;BME280;40181;51.560;13.000;2023-07-24T02:52:35;99735.00;;;21.23;65.01
54270;BME280;40181;51.560;13.000;2023-07-24T02:55:05;99734.84;;;21.07;64.60
54270;BME280;40181;51.560;13.000;2023-07-24T02:57:35;99736.38;;;21.13;64.62
54270;BME280;40181;51.560;13.000;2023-07-24T03:00:09;99729.69;;;21.03;64.08
54270;BME280;40181;51.560;13.000;2023-07-24T03:02:39;99725.00;;;21.08;63.94
54270;BME280;40181;51.560;13.000;2023-07-24T03:05:09;99723.34;;;21.26;64.30
54270;BME280;40181;51.560;13.000;2023-07-24T03:07:38;99734.28;;;21.20;64.02
54270;BME280;40181;51.560;13.000;2023-07-24T03:10:09;99740.47;;;21.20;63.50
54270;BME280;40181;51.560;13.000;2023-07-24T03:12:38;99729.16;;;21.15;64.01
54270;BME280;40181;51.560;13.000;2023-07-24T03:15:10;99733.41;;;20.98;63.35
54270;BME280;40181;51.560;13.000;2023-07-24T03:17:40;99724.06;;;20.88;63.71
54270;BME280;40181;51.560;13.000;2023-07-24T03:20:09;99731.66;;;20.77;63.37
54270;BME280;40181;51.560;13.000;2023-07-24T03:22:41;99726.69;;;20.90;63.08
54270;BME280;40181;51.560;13.000;2023-07-24T03:25:10;99721.34;;;20.90;63.28
54270;BME280;40181;51.560;13.000;2023-07-24T03:27:41;99722.53;;;20.82;63.32
54270;BME280;40181;51.560;13.000;2023-07-24T03:30:13;99721.16;;;20.94;62.62
54270;BME280;40181;51.560;13.000;2023-07-24T03:32:43;99721.25;;;20.91;62.52
54270;BME280;40181;51.560;13.000;2023-07-24T03:35:12;99714.41;;;20.63;63.09
54270;BME280;40181;51.560;13.000;2023-07-24T03:37:42;99715.81;;;20.72;62.81
54270;BME280;40181;51.560;13.000;2023-07-24T03:40:12;99707.81;;;20.72;63.33
54270;BME280;40181;51.560;13.000;2023-07-24T03:42:42;99700.44;;;20.56;63.09
54270;BME280;40181;51.560;13.000;2023-07-24T03:45:13;99695.06;;;20.58;63.14
54270;BME280;40181;51.560;13.000;2023-07-24T03:47:43;99693.66;;;20.70;63.29
54270;BME280;40181;51.560;13.000;2023-07-24T03:50:12;99684.41;;;20.58;63.18
54270;BME280;40181;51.560;13.000;2023-07-24T03:52:41;99697.41;;;20.66;63.06
54270;BME280;40181;51.560;13.000;2023-07-24T03:55:11;99682.88;;;20.73;63.09
54270;BME280;40181;51.560;13.000;2023-07-24T03:57:40;99681.25;;;20.69;62.86
54270;BME280;40181;51.560;13.000;2023-07-24T04:00:13;99680.84;;;20.78;62.62
54270;BME280;40181;51.560;13.000;2023-07-24T04:02:44;99688.59;;;20.64;62.50
54270;BME280;40181;51.560;13.000;2023-07-24T04:05:13;99686.03;;;20.83;62.05
54270;BME280;40181;51.560;13.000;2023-07-24T04:07:43;99686.66;;;20.67;62.63
54270;BME280;40181;51.560;13.000;2023-07-24T04:10:12;99694.19;;;20.78;62.48
54270;BME280;40181;51.560;13.000;2023-07-24T04:12:41;99690.16;;;20.90;62.26
54270;BME280;40181;51.560;13.000;2023-07-24T04:15:13;99688.00;;;20.78;62.22
54270;BME280;40181;51.560;13.000;2023-07-24T04:17:42;99689.78;;;20.56;62.64
54270;BME280;40181;51.560;13.000;2023-07-24T04:20:12;99683.66;;;20.75;62.56
54270;BME280;40181;51.560;13.000;2023-07-24T04:22:41;99684.59;;;20.53;63.23
54270;BME280;40181;51.560;13.000;2023-07-24T04:25:11;99686.38;;;20.53;62.92
54270;BME280;40181;51.560;13.000;2023-07-24T04:27:41;99686.03;;;20.83;62.42
54270;BME280;40181;51.560;13.000;2023-07-24T04:30:13;99696.63;;;20.41;62.84
54270;BME280;40181;51.560;13.000;2023-07-24T04:32:43;99676.81;;;20.47;63.00
54270;BME280;40181;51.560;13.000;2023-07-24T04:35:12;99697.53;;;20.63;62.48
54270;BME280;40181;51.560;13.000;2023-07-24T04:37:41;99694.97;;;20.59;62.75
54270;BME280;40181;51.560;13.000;2023-07-24T04:40:11;99692.66;;;20.72;62.39
54270;BME280;40181;51.560;13.000;2023-07-24T04:42:41;99690.38;;;20.85;61.98
54270;BME280;40181;51.560;13.000;2023-07-24T04:45:13;99686.75;;;20.86;62.45
54270;BME280;40181;51.560;13.000;2023-07-24T04:47:42;99687.31;;;20.72;62.43
54270;BME280;40181;51.560;13.000;2023-07-24T04:50:11;99686.72;;;20.66;62.83
54270;BME280;40181;51.560;13.000;2023-07-24T04:52:41;99693.25;;;20.79;62.57
54270;BME280;40181;51.560;13.000;2023-07-24T04:55:10;99682.38;;;20.63;62.59
54270;BME280;40181;51.560;13.000;2023-07-24T04:57:39;99676.25;;;20.82;62.69
54270;BME280;40181;51.560;13.000;2023-07-24T05:00:10;99670.50;;;20.70;62.61
54270;BME280;40181;51.560;13.000;2023-07-24T05:02:43;99672.41;;;20.89;62.34
54270;BME280;40181;51.560;13.000;2023-07-24T05:05:12;99670.31;;;20.75;62.75
54270;BME280;40181;51.560;13.000;2023-07-24T05:07:42;99664.47;;;20.87;62.69
54270;BME280;40181;51.560;13.000;2023-07-24T05:10:11;99673.03;;;20.73;62.78
54270;BME280;40181;51.560;13.000;2023-07-24T05:12:41;99675.44;;;20.80;62.20
54270;BME280;40181;51.560;13.000;2023-07-24T05:15:10;99668.81;;;20.90;62.25
54270;BME280;40181;51.560;13.000;2023-07-24T05:17:43;99671.31;;;20.93;62.14
54270;BME280;40181;51.560;13.000;2023-07-24T05:20:12;99666.53;;;21.01;61.70
54270;BME280;40181;51.560;13.000;2023-07-24T05:22:42;99658.66;;;20.98;61.71
54270;BME280;40181;51.560;13.000;2023-07-24T05:25:11;99665.91;;;21.15;60.99
54270;BME280;40181;51.560;13.000;2023-07-24T05:27:40;99662.22;;;20.99;61.29
54270;BME280;40181;51.560;13.000;2023-07-24T05:30:10;99663.78;;;21.03;61.09
54270;BME280;40181;51.560;13.000;2023-07-24T05:32:42;99655.94;;;21.19;60.97
54270;BME280;40181;51.560;13.000;2023-07-24T05:35:11;99662.09;;;20.80;61.34
54270;BME280;40181;51.560;13.000;2023-07-24T05:37:40;99652.91;;;21.08;60.92
54270;BME280;40181;51.560;13.000;2023-07-24T05:40:10;99662.91;;;21.23;61.30
54270;BME280;40181;51.560;13.000;2023-07-24T05:42:39;99668.97;;;21.27;60.97
54270;BME280;40181;51.560;13.000;2023-07-24T05:45:10;99669.81;;;21.08;60.90
54270;BME280;40181;51.560;13.000;2023-07-24T05:47:42;99667.13;;;21.08;60.94
54270;BME280;40181;51.560;13.000;2023-07-24T05:50:11;99665.31;;;21.30;60.61
54270;BME280;40181;51.560;13.000;2023-07-24T05:52:41;99665.31;;;21.09;60.75
54270;BME280;40181;51.560;13.000;2023-07-24T05:55:11;99674.75;;;21.18;60.69
54270;BME280;40181;51.560;13.000;2023-07-24T05:57:40;99661.44;;;21.16;60.61
54270;BME280;40181;51.560;13.000;2023-07-24T06:00:10;99645.31;;;21.38;60.17
54270;BME280;40181;51.560;13.000;2023-07-24T06:02:43;99647.69;;;21.45;59.18
54270;BME280;40181;51.560;13.000;2023-07-24T06:05:12;99643.66;;;21.55;59.14
54270;BME280;40181;51.560;13.000;2023-07-24T06:07:41;99648.63;;;21.44;58.75
54270;BME280;40181;51.560;13.000;2023-07-24T06:10:11;99645.16;;;21.61;58.77
54270;BME280;40181;51.560;13.000;2023-07-24T06:12:40;99641.41;;;21.46;58.37
54270;BME280;40181;51.560;13.000;2023-07-24T06:15:10;99643.53;;;21.77;58.13
54270;BME280;40181;51.560;13.000;2023-07-24T06:17:41;99648.88;;;21.77;57.83
54270;BME280;40181;51.560;13.000;2023-07-24T06:20:11;99645.19;;;21.80;57.71
54270;BME280;40181;51.560;13.000;2023-07-24T06:22:40;99644.09;;;21.84;57.35
54270;BME280;40181;51.560;13.000;2023-07-24T06:25:09;99639.75;;;21.81;56.90
54270;BME280;40181;51.560;13.000;2023-07-24T06:27:38;99639.19;;;21.94;56.97
54270;BME280;40181;51.560;13.000;2023-07-24T06:30:08;99637.13;;;21.99;56.65
54270;BME280;40181;51.560;13.000;2023-07-24T06:32:37;99625.63;;;22.34;56.06
54270;BME280;40181;51.560;13.000;2023-07-24T06:35:09;99627.19;;;22.38;55.49
54270;BME280;40181;51.560;13.000;2023-07-24T06:37:39;99619.00;;;22.76;53.95
54270;BME280;40181;51.560;13.000;2023-07-24T06:40:09;99609.97;;;22.79;53.57
54270;BME280;40181;51.560;13.000;2023-07-24T06:42:39;99614.47;;;22.78;53.62
54270;BME280;40181;51.560;13.000;2023-07-24T06:45:08;99616.19;;;22.79;53.32
54270;BME280;40181;51.560;13.000;2023-07-24T06:47:38;99607.13;;;22.82;52.60
54270;BME280;40181;51.560;13.000;2023-07-24T06:50:12;99602.41;;;22.87;52.68
54270;BME280;40181;51.560;13.000;2023-07-24T06:52:41;99596.16;;;22.87;52.40
54270;BME280;40181;51.560;13.000;2023-07-24T06:55:11;99600.91;;;23.15;52.32
54270;BME280;40181;51.560;13.000;2023-07-24T06:57:40;99607.25;;;23.30;53.04
54270;BME280;40181;51.560;13.000;2023-07-24T07:00:11;99607.28;;;23.13;52.14
54270;BME280;40181;51.560;13.000;2023-07-24T07:02:41;99605.88;;;23.23;51.56
54270;BME280;40181;51.560;13.000;2023-07-24T07:05:13;99618.59;;;23.52;52.08
54270;BME280;40181;51.560;13.000;2023-07-24T07:07:43;99617.19;;;23.28;51.54
54270;BME280;40181;51.560;13.000;2023-07-24T07:10:12;99611.59;;;23.33;51.60
54270;BME280;40181;51.560;13.000;2023-07-24T07:12:42;99605.56;;;23.77;51.01
54270;BME280;40181;51.560;13.000;2023-07-24T07:15:11;99612.66;;;23.62;51.36
54270;BME280;40181;51.560;13.000;2023-07-24T07:17:40;99600.63;;;23.86;51.16
54270;BME280;40181;51.560;13.000;2023-07-24T07:20:12;99610.69;;;23.50;50.92
54270;BME280;40181;51.560;13.000;2023-07-24T07:22:42;99601.03;;;23.94;51.38
54270;BME280;40181;51.560;13.000;2023-07-24T07:25:11;99595.09;;;24.05;50.24
54270;BME280;40181;51.560;13.000;2023-07-24T07:27:41;99589.53;;;24.08;51.19
54270;BME280;40181;51.560;13.000;2023-07-24T07:30:11;99591.91;;;24.29;49.77
54270;BME280;40181;51.560;13.000;2023-07-24T07:32:41;99577.66;;;23.96;50.13
54270;BME280;40181;51.560;13.000;2023-07-24T07:35:13;99579.41;;;24.13;49.33
54270;BME280;40181;51.560;13.000;2023-07-24T07:37:43;99568.78;;;24.26;49.25
54270;BME280;40181;51.560;13.000;2023-07-24T07:40:12;99559.41;;;24.34;49.11
54270;BME280;40181;51.560;13.000;2023-07-24T07:42:41;99572.56;;;24.08;49.41
54270;BME280;40181;51.560;13.000;2023-07-24T07:45:11;99568.41;;;24.18;49.20
54270;BME280;40181;51.560;13.000;2023-07-24T07:47:40;99572.84;;;24.34;48.72
54270;BME280;40181;51.560;13.000;2023-07-24T07:50:10;99568.63;;;24.29;48.34
54270;BME280;40181;51.560;13.000;2023-07-24T07:52:42;99574.22;;;24.10;49.06
54270;BME280;40181;51.560;13.000;2023-07-24T07:55:11;99569.47;;;24.30;48.66
54270;BME280;40181;51.560;13.000;2023-07-24T07:57:40;99578.25;;;24.17;48.64
54270;BME280;40181;51.560;13.000;2023-07-24T08:00:11;99576.94;;;24.25;48.59
54270;BME280;40181;51.560;13.000;2023-07-24T08:02:41;99576.31;;;24.36;49.03
54270;BME280;40181;51.560;13.000;2023-07-24T08:05:13;99574.00;;;24.29;49.25
54270;BME280;40181;51.560;13.000;2023-07-24T08:07:42;99583.16;;;24.25;47.79
54270;BME280;40181;51.560;13.000;2023-07-24T08:10:12;99585.28;;;24.20;48.33
54270;BME280;40181;51.560;13.000;2023-07-24T08:12:42;99573.03;;;24.30;48.51
54270;BME280;40181;51.560;13.000;2023-07-24T08:15:11;99563.53;;;24.39;48.82
54270;BME280;40181;51.560;13.000;2023-07-24T08:17:40;99549.97;;;24.42;48.12
54270;BME280;40181;51.560;13.000;2023-07-24T08:20:13;99544.69;;;24.70;47.95
54270;BME280;40181;51.560;13.000;2023-07-24T08:22:42;99552.81;;;24.84;48.86
54270;BME280;40181;51.560;13.000;2023-07-24T08:25:12;99552.56;;;24.58;47.41
54270;BME280;40181;51.560;13.000;2023-07-24T08:27:42;99539.91;;;24.75;47.30
54270;BME280;40181;51.560;13.000;2023-07-24T08:30:12;99534.25;;;25.09;47.15
54270;BME280;40181;51.560;13.000;2023-07-24T08:32:41;99545.47;;;25.30;46.53
54270;BME280;40181;51.560;13.000;2023-07-24T08:35:13;99544.09;;;25.37;46.51
54270;BME280;40181;51.560;13.000;2023-07-24T08:37:43;99547.03;;;25.20;46.02
54270;BME280;40181;51.560;13.000;2023-07-24T08:40:12;99536.56;;;25.15;46.29
54270;BME280;40181;51.560;13.000;2023-07-24T08:42:43;99545.47;;;25.16;44.95
54270;BME280;40181;51.560;13.000;2023-07-24T08:45:13;99556.63;;;24.95;45.24
54270;BME280;40181;51.560;13.000;2023-07-24T08:47:43;99553.38;;;25.04;44.90
54270;BME280;40181;51.560;13.000;2023-07-24T08:50:15;99532.63;;;25.21;44.81
54270;BME280;40181;51.560;13.000;2023-07-24T08:52:45;99537.69;;;25.25;45.02
54270;BME280;40181;51.560;13.000;2023-07-24T08:55:14;99537.00;;;25.36;44.60
54270;BME280;40181;51.560;13.000;2023-07-24T08:57:44;99524.84;;;25.31;43.87
54270;BME280;40181;51.560;13.000;2023-07-24T09:00:14;99528.63;;;25.83;43.92
54270;BME280;40181;51.560;13.000;2023-07-24T09:02:44;99522.59;;;25.79;44.17
54270;BME280;40181;51.560;13.000;2023-07-24T09:05:16;99521.47;;;25.69;43.98
54270;BME280;40181;51.560;13.000;2023-07-24T09:07:45;99526.94;;;25.95;44.09
54270;BME280;40181;51.560;13.000;2023-07-24T09:10:15;99515.31;;;26.35;44.17
54270;BME280;40181;51.560;13.000;2023-07-24T09:12:45;99520.13;;;26.43;42.92
54270;BME280;40181;51.560;13.000;2023-07-24T09:15:14;99520.03;;;26.57;42.20
54270;BME280;40181;51.560;13.000;2023-07-24T09:17:49;99518.41;;;26.68;42.81
54270;BME280;40181;51.560;13.000;2023-07-24T09:20:22;99517.22;;;26.46;42.02
54270;BME280;40181;51.560;13.000;2023-07-24T09:22:53;99527.56;;;26.52;41.67
54270;BME280;40181;51.560;13.000;2023-07-24T09:25:29;99523.34;;;27.00;41.72
54270;BME280;40181;51.560;13.000;2023-07-24T09:27:59;99509.03;;;26.21;41.43
54270;BME280;40181;51.560;13.000;2023-07-24T09:30:29;99510.97;;;26.97;41.89
54270;BME280;40181;51.560;13.000;2023-07-24T09:32:59;99518.94;;;26.99;40.03
54270;BME280;40181;51.560;13.000;2023-07-24T09:35:30;99510.53;;;26.90;40.62
54270;BME280;40181;51.560;13.000;2023-07-24T09:38:04;99508.50;;;26.94;41.51
54270;BME280;40181;51.560;13.000;2023-07-24T09:40:39;99524.88;;;26.52;41.42
54270;BME280;40181;51.560;13.000;2023-07-24T09:43:18;99515.38;;;26.85;40.84
54270;BME280;40181;51.560;13.000;2023-07-24T09:45:50;99514.75;;;26.69;41.28
54270;BME280;40181;51.560;13.000;2023-07-24T09:48:21;99504.19;;;26.27;41.75
54270;BME280;40181;51.560;13.000;2023-07-24T09:50:56;99507.41;;;26.45;41.97
54270;BME280;40181;51.560;13.000;2023-07-24T09:53:32;99489.44;;;26.71;41.53
54270;BME280;40181;51.560;13.000;2023-07-24T09:56:04;99480.16;;;26.88;41.84
54270;BME280;40181;51.560;13.000;2023-07-24T09:58:36;99477.28;;;26.65;41.22
54270;BME280;40181;51.560;13.000;2023-07-24T10:01:08;99477.53;;;26.87;43.39
54270;BME280;40181;51.560;13.000;2023-07-24T10:03:39;99482.66;;;27.29;42.19
54270;BME280;40181;51.560;13.000;2023-07-24T10:06:15;99482.50;;;26.80;41.53
54270;BME280;40181;51.560;13.000;2023-07-24T10:08:48;99459.41;;;27.39;40.72
54270;BME280;40181;51.560;13.000;2023-07-24T10:11:19;99466.06;;;27.46;39.67
54270;BME280;40181;51.560;13.000;2023-07-24T10:13:50;99460.50;;;27.37;40.27
54270;BME280;40181;51.560;13.000;2023-07-24T10:16:20;99446.28;;;27.59;42.49
54270;BME280;40181;51.560;13.000;2023-07-24T10:18:49;99452.63;;;27.94;40.03
54270;BME280;40181;51.560;13.000;2023-07-24T10:21:26;99459.44;;;27.51;40.73
54270;BME280;40181;51.560;13.000;2023-07-24T10:23:59;99449.00;;;27.46;40.68
54270;BME280;40181;51.560;13.000;2023-07-24T10:26:29;99457.34;;;27.67;39.74
54270;BME280;40181;51.560;13.000;2023-07-24T10:29:00;99437.13;;;27.73;40.18
54270;BME280;40181;51.560;13.000;2023-07-24T10:31:29;99443.50;;;27.72;39.56
54270;BME280;40181;51.560;13.000;2023-07-24T10:34:04;99452.63;;;27.33;40.11
54270;BME280;40181;51.560;13.000;2023-07-24T10:36:36;99444.56;;;27.58;39.75
54270;BME280;40181;51.560;13.000;2023-07-24T10:39:13;99429.22;;;27.34;40.75
54270;BME280;40181;51.560;13.000;2023-07-24T10:41:44;99422.34;;;27.30;40.56
54270;BME280;40181;51.560;13.000;2023-07-24T10:44:13;99428.59;;;27.91;39.91
54270;BME280;40181;51.560;13.000;2023-07-24T10:46:44;99421.47;;;27.78;40.29
54270;BME280;40181;51.560;13.000;2023-07-24T10:49:13;99425.81;;;28.03;39.72
54270;BME280;40181;51.560;13.000;2023-07-24T10:51:55;99412.69;;;28.10;41.32
54270;BME280;40181;51.560;13.000;2023-07-24T10:54:24;99401.19;;;28.31;40.31
54270;BME280;40181;51.560;13.000;2023-07-24T10:57:00;99397.16;;;28.48;40.55
54270;BME280;40181;51.560;13.000;2023-07-24T10:59:37;99396.13;;;28.61;40.15
54270;BME280;40181;51.560;13.000;2023-07-24T11:02:07;99400.09;;;27.86;41.27
54270;BME280;40181;51.560;13.000;2023-07-24T11:04:39;99384.63;;;27.66;41.68
54270;BME280;40181;51.560;13.000;2023-07-24T11:07:11;99379.13;;;27.79;41.46
54270;BME280;40181;51.560;13.000;2023-07-24T11:09:41;99378.53;;;27.86;42.01
54270;BME280;40181;51.560;13.000;2023-07-24T11:12:12;99363.22;;;27.98;42.03
54270;BME280;40181;51.560;13.000;2023-07-24T11:14:46;99368.97;;;27.82;41.64
54270;BME280;40181;51.560;13.000;2023-07-24T11:17:17;99364.66;;;27.68;42.03
54270;BME280;40181;51.560;13.000;2023-07-24T11:19:46;99359.16;;;28.04;41.28
54270;BME280;40181;51.560;13.000;2023-07-24T11:22:21;99364.91;;;27.88;42.07
54270;BME280;40181;51.560;13.000;2023-07-24T11:24:52;99354.28;;;27.51;42.37
54270;BME280;40181;51.560;13.000;2023-07-24T11:27:21;99361.94;;;27.68;41.54
54270;BME280;40181;51.560;13.000;2023-07-24T11:29:53;99350.16;;;27.58;42.14
54270;BME280;40181;51.560;13.000;2023-07-24T11:32:22;99346.50;;;27.70;42.41
54270;BME280;40181;51.560;13.000;2023-07-24T11:34:52;99356.59;;;27.44;42.25
54270;BME280;40181;51.560;13.000;2023-07-24T11:37:24;99351.03;;;27.34;41.63
54270;BME280;40181;51.560;13.000;2023-07-24T11:39:57;99365.66;;;27.43;42.29
54270;BME280;40181;51.560;13.000;2023-07-24T11:42:30;99351.66;;;27.38;42.41
54270;BME280;40181;51.560;13.000;2023-07-24T11:45:01;99365.16;;;27.49;42.11
54270;BME280;40181;51.560;13.000;2023-07-24T11:47:31;99364.19;;;27.50;42.39
54270;BME280;40181;51.560;13.000;2023-07-24T11:50:00;99358.19;;;27.46;42.18
54270;BME280;40181;51.560;13.000;2023-07-24T11:52:40;99352.44;;;27.51;41.69
54270;BME280;40181;51.560;13.000;2023-07-24T11:55:11;99343.94;;;27.44;42.23
54270;BME280;40181;51.560;13.000;2023-07-24T11:57:42;99338.66;;;27.67;42.67
54270;BME280;40181;51.560;13.000;2023-07-24T12:00:19;99354.63;;;27.46;42.27
54270;BME280;40181;51.560;13.000;2023-07-24T12:02:50;99356.22;;;27.13;42.63
54270;BME280;40181;51.560;13.000;2023-07-24T12:05:19;99337.81;;;27.42;43.04
54270;BME280;40181;51.560;13.000;2023-07-24T12:07:54;99334.34;;;27.65;42.32
54270;BME280;40181;51.560;13.000;2023-07-24T12:10:27;99345.25;;;27.63;41.84
54270;BME280;40181;51.560;13.000;2023-07-24T12:12:59;99327.94;;;27.18;43.07
54270;BME280;40181;51.560;13.000;2023-07-24T12:15:29;99317.22;;;27.05;42.70
54270;BME280;40181;51.560;13.000;2023-07-24T12:17:59;99322.19;;;27.23;42.64
54270;BME280;40181;51.560;13.000;2023-07-24T12:20:29;99318.84;;;27.44;42.46
54270;BME280;40181;51.560;13.000;2023-07-24T12:23:02;99308.47;;;27.62;42.86
54270;BME280;40181;51.560;13.000;2023-07-24T12:25:31;99315.88;;;27.47;42.65
54270;BME280;40181;51.560;13.000;2023-07-24T12:28:00;99310.84;;;27.31;42.30
54270;BME280;40181;51.560;13.000;2023-07-24T12:30:29;99316.50;;;27.39;42.62
54270;BME280;40181;51.560;13.000;2023-07-24T12:32:59;99319.81;;;27.43;42.16
54270;BME280;40181;51.560;13.000;2023-07-24T12:35:28;99319.22;;;27.51;42.49
54270;BME280;40181;51.560;13.000;2023-07-24T12:37:58;99306.31;;;28.01;41.78
54270;BME280;40181;51.560;13.000;2023-07-24T12:40:30;99299.53;;;27.96;41.93
54270;BME280;40181;51.560;13.000;2023-07-24T12:42:59;99297.72;;;27.85;42.63
54270;BME280;40181;51.560;13.000;2023-07-24T12:45:30;99293.03;;;27.98;42.59
54270;BME280;40181;51.560;13.000;2023-07-24T12:47:59;99291.69;;;28.04;42.59
54270;BME280;40181;51.560;13.000;2023-07-24T12:50:29;99279.78;;;28.41;42.08
54270;BME280;40181;51.560;13.000;2023-07-24T12:52:58;99280.66;;;28.19;41.41
54270;BME280;40181;51.560;13.000;2023-07-24T12:55:30;99290.59;;;28.41;42.08
54270;BME280;40181;51.560;13.000;2023-07-24T12:57:59;99266.81;;;28.67;41.30
54270;BME280;40181;51.560;13.000;2023-07-24T13:00:29;99293.19;;;28.75;40.76
54270;BME280;40181;51.560;13.000;2023-07-24T13:02:59;99257.22;;;28.86;40.85
54270;BME280;40181;51.560;13.000;2023-07-24T13:05:28;99256.19;;;28.54;40.40
54270;BME280;40181;51.560;13.000;2023-07-24T13:07:57;99249.78;;;28.55;40.70